Maurertown, Virginia
Current Conditions -  °F | °C
As of 1:55 PM on Monday 20 Oct 2014 (Local Time) from KFRR Reporting Station
Clear Clear  
Wind Chill: 64°   Ceiling: Unl
Heat Index: 64°   Visibility: 10mi
Dew Point: 39°   Wind: 3mph
Humidity: 40%   Direction: 220°SW
Pressure: 29.95"   Gusts: NA
Location:  38.93°N, 78.46°W
Report Text: KFRR 201755Z AUTO 22003KT 10SM CLR 18/04 A2995 RMK AO1
Loading
Personal Weather Stations






























Interactive Weather Map New forecast layout! Learn more

10-Day Weather Forecast

Advertisements
Track Severe Weather on mobile